createdAt,value
2023-04-12T00:00:15.945Z,99815.84
2023-04-12T00:02:44.986Z,99807.84
2023-04-12T00:05:14.461Z,99810.50
2023-04-12T00:07:47.022Z,99808.47
2023-04-12T00:10:15.395Z,99797.78
2023-04-12T00:12:43.683Z,99787.09
2023-04-12T00:15:14.760Z,99771.50
2023-04-12T00:17:49.816Z,99762.47
2023-04-12T00:20:18.433Z,99767.00
2023-04-12T00:22:46.752Z,99762.09
2023-04-12T00:25:17.847Z,99766.81
2023-04-12T00:27:46.091Z,99758.78
2023-04-12T00:30:14.483Z,99772.13
2023-04-12T00:32:44.282Z,99782.63
2023-04-12T00:35:12.761Z,99770.91
2023-04-12T00:37:40.935Z,99782.19
2023-04-12T00:40:11.781Z,99786.31
2023-04-12T00:42:40.262Z,99795.13
2023-04-12T00:45:13.411Z,99801.31
2023-04-12T00:47:44.514Z,99806.63
2023-04-12T00:50:13.460Z,99795.34
2023-04-12T00:52:41.982Z,99797.19
2023-04-12T00:55:11.339Z,99786.72
2023-04-12T00:57:41.164Z,99783.66
2023-04-12T01:00:14.912Z,99783.66
2023-04-12T01:02:48.479Z,99784.28
2023-04-12T01:05:22.494Z,99793.31
2023-04-12T01:08:01.005Z,99796.59
2023-04-12T01:10:39.876Z,99789.00
2023-04-12T01:13:22.470Z,99795.34
2023-04-12T01:15:56.285Z,99789.59
2023-04-12T01:18:30.135Z,99795.19
2023-04-12T01:21:05.055Z,99801.75
2023-04-12T01:24:00.653Z,99796.00
2023-04-12T01:26:38.003Z,99798.88
2023-04-12T01:29:12.793Z,99801.34
2023-04-12T01:31:43.247Z,99804.81
2023-04-12T01:34:13.502Z,99802.34
2023-04-12T01:36:44.520Z,99805.84
2023-04-12T01:39:13.326Z,99808.31
2023-04-12T01:41:45.449Z,99815.28
2023-04-12T01:44:16.576Z,99818.97
2023-04-12T01:46:47.715Z,99814.88
2023-04-12T01:49:18.024Z,99821.22
2023-04-12T01:51:52.769Z,99810.34
2023-04-12T01:54:24.281Z,99796.22
2023-04-12T01:57:02.157Z,99798.25
2023-04-12T01:59:34.273Z,99803.38
2023-04-12T02:02:07.235Z,99818.34
2023-04-12T02:04:36.901Z,99811.38
2023-04-12T02:07:06.218Z,99812.19
2023-04-12T02:09:38.478Z,99810.34
2023-04-12T02:12:09.856Z,99807.47
2023-04-12T02:14:40.953Z,99814.25
2023-04-12T02:17:10.021Z,99806.88
2023-04-12T02:19:38.245Z,99807.28
2023-04-12T02:22:08.213Z,99814.06
2023-04-12T02:24:36.505Z,99821.03
2023-04-12T02:27:05.137Z,99820.03
2023-04-12T02:29:33.863Z,99815.47
2023-04-12T02:32:04.595Z,99809.34
2023-04-12T02:34:34.434Z,99810.13
2023-04-12T02:37:04.035Z,99808.28
2023-04-12T02:39:32.752Z,99806.44
2023-04-12T02:42:01.682Z,99795.41
2023-04-12T02:44:31.247Z,99801.75
2023-04-12T02:47:00.162Z,99801.94
2023-04-12T02:49:30.256Z,99808.09
2023-04-12T02:52:02.516Z,99809.94
2023-04-12T02:54:30.667Z,99805.84
2023-04-12T02:56:59.269Z,99807.91
2023-04-12T02:59:27.467Z,99810.75
2023-04-12T03:01:55.717Z,99809.13
2023-04-12T03:04:30.850Z,99803.16
2023-04-12T03:07:00.766Z,99808.28
2023-04-12T03:09:28.940Z,99804.19
2023-04-12T03:11:57.192Z,99799.06
2023-04-12T03:14:26.746Z,99810.94
2023-04-12T03:16:55.519Z,99805.63
2023-04-12T03:19:24.052Z,99806.00
2023-04-12T03:21:52.757Z,99807.84
2023-04-12T03:24:22.433Z,99806.25
2023-04-12T03:26:52.392Z,99803.78
2023-04-12T03:29:20.574Z,99800.47
2023-04-12T03:31:48.810Z,99801.09
2023-04-12T03:34:18.645Z,99808.91
2023-04-12T03:36:47.073Z,99800.28
2023-04-12T03:39:15.366Z,99802.13
2023-04-12T03:41:45.122Z,99806.84
2023-04-12T03:44:14.704Z,99813.19
2023-04-12T03:46:43.035Z,99823.03
2023-04-12T03:49:11.352Z,99816.88
2023-04-12T03:51:42.889Z,99817.50
2023-04-12T03:54:11.645Z,99815.84
2023-04-12T03:56:40.174Z,99818.91
2023-04-12T03:59:10.202Z,99811.28
2023-04-12T04:01:38.978Z,99817.00
2023-04-12T04:04:08.175Z,99811.88
2023-04-12T04:06:37.039Z,99810.47
2023-04-12T04:09:05.876Z,99807.19
2023-04-12T04:11:34.241Z,99805.34
2023-04-12T04:14:02.587Z,99801.84
2023-04-12T04:16:33.797Z,99801.84
2023-04-12T04:19:02.296Z,99806.97
2023-04-12T04:21:34.558Z,99807.81
2023-04-12T04:24:04.251Z,99810.25
2023-04-12T04:26:35.510Z,99798.78
2023-04-12T04:29:04.922Z,99805.97
2023-04-12T04:31:36.627Z,99806.78
2023-04-12T04:34:06.802Z,99807.59
2023-04-12T04:36:36.659Z,99802.28
2023-04-12T04:39:05.731Z,99803.09
2023-04-12T04:41:39.490Z,99796.94
2023-04-12T04:44:09.867Z,99808.44
2023-04-12T04:46:40.145Z,99811.88
2023-04-12T04:49:08.605Z,99809.00
2023-04-12T04:51:36.831Z,99807.19
2023-04-12T04:54:05.946Z,99797.34
2023-04-12T04:56:34.332Z,99795.28
2023-04-12T04:59:03.012Z,99808.63
2023-04-12T05:01:32.277Z,99804.75
2023-04-12T05:04:02.239Z,99801.28
2023-04-12T05:06:31.007Z,99813.78
2023-04-12T05:09:00.729Z,99820.56
2023-04-12T05:11:31.534Z,99823.03
2023-04-12T05:13:59.859Z,99811.16
2023-04-12T05:16:29.959Z,99813.00
2023-04-12T05:18:58.821Z,99808.69
2023-04-12T05:21:28.987Z,99810.53
2023-04-12T05:23:57.293Z,99809.31
2023-04-12T05:26:26.096Z,99815.44
2023-04-12T05:28:54.842Z,99816.06
2023-04-12T05:31:25.625Z,99817.69
2023-04-12T05:33:54.624Z,99814.84
2023-04-12T05:36:23.401Z,99817.91
2023-04-12T05:38:58.482Z,99817.91
2023-04-12T05:41:27.472Z,99808.47
2023-04-12T05:43:55.880Z,99801.69
2023-04-12T05:46:24.327Z,99812.56
2023-04-12T05:48:56.350Z,99809.69
2023-04-12T05:51:37.696Z,99817.09
2023-04-12T05:54:10.953Z,99813.41
2023-04-12T05:56:39.477Z,99807.69
2023-04-12T05:59:09.180Z,99808.09
2023-04-12T06:01:37.777Z,99810.13
2023-04-12T06:04:06.475Z,99820.19
2023-04-12T06:06:34.874Z,99821.25
2023-04-12T06:09:04.240Z,99824.28
2023-04-12T06:11:34.580Z,99820.59
2023-04-12T06:14:03.492Z,99828.00
2023-04-12T06:16:33.581Z,99827.19
2023-04-12T06:19:01.776Z,99822.06
2023-04-12T06:21:30.141Z,99821.66
2023-04-12T06:23:58.534Z,99821.03
2023-04-12T06:26:27.853Z,99818.75
2023-04-12T06:29:01.744Z,99828.63
2023-04-12T06:31:30.054Z,99833.56
2023-04-12T06:34:02.071Z,99835.78
2023-04-12T06:36:30.445Z,99828.19
2023-04-12T06:38:58.994Z,99833.72
2023-04-12T06:41:27.349Z,99827.78
2023-04-12T06:43:56.079Z,99827.59
2023-04-12T06:46:28.977Z,99828.84
2023-04-12T06:48:57.386Z,99830.69
2023-04-12T06:51:25.740Z,99834.19
2023-04-12T06:53:54.207Z,99827.59
2023-04-12T06:56:22.611Z,99826.75
2023-04-12T06:58:50.918Z,99827.59
2023-04-12T07:01:19.177Z,99831.88
2023-04-12T07:03:49.366Z,99832.28
2023-04-12T07:06:24.390Z,99822.84
2023-04-12T07:08:53.998Z,99822.44
2023-04-12T07:11:25.446Z,99822.44
2023-04-12T07:13:53.766Z,99824.47
2023-04-12T07:16:22.024Z,99823.84
2023-04-12T07:18:51.726Z,99828.19
2023-04-12T07:21:20.003Z,99828.81
2023-04-12T07:23:51.281Z,99829.81
2023-04-12T07:26:20.017Z,99823.03
2023-04-12T07:28:48.311Z,99824.47
2023-04-12T07:31:16.655Z,99825.47
2023-04-12T07:33:45.667Z,99829.38
2023-04-12T07:36:16.772Z,99824.00
2023-04-12T07:38:45.510Z,99830.78
2023-04-12T07:41:13.707Z,99828.28
2023-04-12T07:43:42.079Z,99819.44
2023-04-12T07:46:11.372Z,99817.34
2023-04-12T07:48:39.915Z,99817.31
2023-04-12T07:51:08.125Z,99823.44
2023-04-12T07:53:37.887Z,99825.06
2023-04-12T07:56:07.087Z,99822.34
2023-04-12T07:58:35.695Z,99822.34
2023-04-12T08:01:04.082Z,99823.41
2023-04-12T08:03:32.589Z,99823.59
2023-04-12T08:06:02.695Z,99820.13
2023-04-12T08:08:31.100Z,99831.22
2023-04-12T08:11:02.894Z,99819.47
2023-04-12T08:13:31.419Z,99815.53
2023-04-12T08:16:00.144Z,99818.41
2023-04-12T08:18:30.317Z,99814.28
2023-04-12T08:20:59.368Z,99815.13
2023-04-12T08:23:28.094Z,99810.38
2023-04-12T08:26:03.484Z,99816.34
2023-04-12T08:28:33.719Z,99808.47
2023-04-12T08:31:02.027Z,99812.34
2023-04-12T08:33:30.462Z,99804.25
2023-04-12T08:35:59.559Z,99811.03
2023-04-12T08:38:41.576Z,99799.91
2023-04-12T08:41:15.059Z,99813.09
2023-04-12T08:43:48.905Z,99811.66
2023-04-12T08:46:17.993Z,99817.00
2023-04-12T08:48:47.435Z,99810.75
2023-04-12T08:51:17.625Z,99802.84
2023-04-12T08:53:49.802Z,99812.66
2023-04-12T08:56:20.805Z,99811.47
2023-04-12T08:58:52.412Z,99807.50
2023-04-12T09:01:23.674Z,99805.50
2023-04-12T09:03:52.115Z,99805.16
2023-04-12T09:06:20.625Z,99801.34
2023-04-12T09:08:56.699Z,99791.25
2023-04-12T09:11:26.869Z,99798.91
2023-04-12T09:13:58.875Z,99793.25
2023-04-12T09:19:33.529Z,99795.16
2023-04-12T09:22:02.003Z,99794.88
2023-04-12T09:24:32.189Z,99797.38
2023-04-12T09:27:04.994Z,99789.38
2023-04-12T09:29:35.591Z,99795.34
2023-04-12T09:32:05.870Z,99790.66
2023-04-12T09:34:36.152Z,99788.75
2023-04-12T09:37:14.565Z,99787.94
2023-04-12T09:39:43.283Z,99785.34
2023-04-12T09:42:29.942Z,99786.97
2023-04-12T09:45:19.943Z,99780.53
2023-04-12T09:47:54.782Z,99787.75
2023-04-12T09:50:24.264Z,99786.44
2023-04-12T09:52:53.936Z,99785.72
2023-04-12T09:55:23.981Z,99783.84
2023-04-12T09:57:54.111Z,99784.75
2023-04-12T10:00:27.228Z,99774.56
2023-04-12T10:02:57.927Z,99775.03
2023-04-12T10:05:28.120Z,99781.75
2023-04-12T10:07:58.601Z,99776.47
2023-04-12T10:10:27.371Z,99780.00
2023-04-12T10:12:59.200Z,99775.78
2023-04-12T10:15:30.969Z,99772.94
2023-04-12T10:17:59.515Z,99775.03
2023-04-12T10:20:29.497Z,99781.63
2023-04-12T10:23:00.378Z,99773.44
2023-04-12T10:25:31.121Z,99775.56
2023-04-12T10:28:15.574Z,99769.38
2023-04-12T10:30:45.932Z,99771.09
2023-04-12T10:33:21.279Z,99767.13
2023-04-12T10:36:04.165Z,99772.34
2023-04-12T10:38:45.930Z,99773.09
2023-04-12T10:41:17.132Z,99769.38
2023-04-12T10:43:47.092Z,99765.00
2023-04-12T10:46:54.068Z,99774.44
2023-04-12T10:49:25.367Z,99770.03
2023-04-12T10:52:13.273Z,99771.34
2023-04-12T10:54:41.849Z,99774.59
2023-04-12T10:57:44.501Z,99766.53
2023-04-12T11:00:14.651Z,99767.41
2023-04-12T11:03:13.757Z,99765.16
2023-04-12T11:06:12.778Z,99762.19
2023-04-12T11:08:48.806Z,99766.66
2023-04-12T11:11:22.908Z,99757.25
2023-04-12T11:13:57.078Z,99756.69
2023-04-12T11:16:26.749Z,99752.78
2023-04-12T11:18:58.380Z,99757.59
2023-04-12T11:21:27.773Z,99761.44
2023-04-12T11:23:56.737Z,99750.50
2023-04-12T11:26:25.694Z,99753.84
2023-04-12T11:28:59.123Z,99748.53
2023-04-12T11:31:27.837Z,99754.31
2023-04-12T11:34:01.341Z,99758.50
2023-04-12T11:36:29.634Z,99756.69
2023-04-12T11:38:58.839Z,99757.50
2023-04-12T11:41:27.404Z,99756.31
2023-04-12T11:43:55.732Z,99751.50
2023-04-12T11:46:24.320Z,99752.78
2023-04-12T11:48:54.719Z,99743.63
2023-04-12T11:51:29.834Z,99751.59
2023-04-12T11:54:04.861Z,99739.88
2023-04-12T11:56:33.188Z,99740.34
2023-04-12T11:59:01.510Z,99746.94
2023-04-12T12:01:31.913Z,99741.41
2023-04-12T12:04:01.070Z,99743.16
2023-04-12T12:06:33.018Z,99730.91
2023-04-12T12:09:04.064Z,99724.19
2023-04-12T12:11:33.207Z,99724.41
2023-04-12T12:14:01.940Z,99717.47
2023-04-12T12:16:32.377Z,99720.44
2023-04-12T12:19:05.366Z,99715.59
2023-04-12T12:21:35.145Z,99713.28
2023-04-12T12:24:03.427Z,99719.59
2023-04-12T12:26:31.847Z,99703.56
2023-04-12T12:29:00.938Z,99718.72
2023-04-12T12:31:29.749Z,99709.41
2023-04-12T12:34:00.157Z,99707.28
2023-04-12T12:36:36.530Z,99710.69
2023-04-12T12:39:09.531Z,99707.19
2023-04-12T12:41:50.717Z,99703.53
2023-04-12T12:44:19.124Z,99702.75
2023-04-12T12:49:18.978Z,99697.94
2023-04-12T12:51:51.782Z,99702.06
2023-04-12T12:54:36.165Z,99695.25
2023-04-12T12:57:07.482Z,99691.59
2023-04-12T12:59:37.930Z,99700.09
2023-04-12T13:02:07.559Z,99700.31
2023-04-12T13:04:36.468Z,99690.47
2023-04-12T13:07:08.886Z,99684.81
2023-04-12T13:09:37.156Z,99697.28
2023-04-12T13:12:05.703Z,99692.03
2023-04-12T13:14:35.770Z,99697.94
2023-04-12T13:17:03.980Z,99694.97
2023-04-12T13:19:32.160Z,99681.81
2023-04-12T13:22:00.349Z,99689.94
2023-04-12T13:24:30.392Z,99681.91
2023-04-12T13:26:59.640Z,99695.09
2023-04-12T13:29:27.901Z,99674.31
2023-04-12T13:31:56.459Z,99680.03
2023-04-12T13:34:24.760Z,99680.03
2023-04-12T13:37:03.665Z,99681.34
2023-04-12T13:39:34.801Z,99682.47
2023-04-12T13:42:03.468Z,99671.72
2023-04-12T13:44:31.738Z,99667.47
2023-04-12T13:47:00.054Z,99665.91
2023-04-12T13:49:28.316Z,99669.19
2023-04-12T13:51:57.679Z,99658.09
2023-04-12T13:54:26.232Z,99665.66
2023-04-12T13:56:57.692Z,99658.44
2023-04-12T13:59:27.078Z,99660.66
2023-04-12T14:01:55.936Z,99656.63
2023-04-12T14:04:24.459Z,99659.59
2023-04-12T14:06:52.943Z,99649.06
2023-04-12T14:09:28.950Z,99650.81
2023-04-12T14:12:00.336Z,99647.56
2023-04-12T14:14:32.626Z,99649.44
2023-04-12T14:17:02.230Z,99633.69
2023-04-12T14:19:30.631Z,99639.25
2023-04-12T14:21:59.244Z,99626.53
2023-04-12T14:24:28.203Z,99640.31
2023-04-12T14:26:57.432Z,99639.34
2023-04-12T14:29:30.884Z,99633.47
2023-04-12T14:31:59.399Z,99634.56
2023-04-12T14:34:28.131Z,99633.44
2023-04-12T14:36:56.665Z,99625.59
2023-04-12T14:39:27.105Z,99628.25
2023-04-12T14:41:56.998Z,99625.44
2023-04-12T14:44:27.496Z,99628.06
2023-04-12T14:46:55.851Z,99622.06
2023-04-12T14:49:24.195Z,99626.66
2023-04-12T14:51:52.730Z,99620.13
2023-04-12T14:54:22.767Z,99628.22
2023-04-12T14:56:55.152Z,99626.03
2023-04-12T14:59:27.387Z,99623.72
2023-04-12T15:01:59.603Z,99627.84
2023-04-12T15:04:28.090Z,99629.06
2023-04-12T15:06:56.730Z,99621.81
2023-04-12T15:09:26.197Z,99621.13
2023-04-12T15:12:02.291Z,99627.44
2023-04-12T15:14:33.913Z,99624.59
2023-04-12T15:17:05.739Z,99628.22
2023-04-12T15:19:34.264Z,99633.22
2023-04-12T15:22:02.660Z,99620.41
2023-04-12T15:24:32.000Z,99633.47
2023-04-12T15:27:00.163Z,99634.09
2023-04-12T15:29:28.471Z,99629.19
2023-04-12T15:31:57.241Z,99637.69
2023-04-12T15:34:28.648Z,99633.19
2023-04-12T15:36:57.018Z,99634.91
2023-04-12T15:39:25.262Z,99638.22
2023-04-12T15:41:53.467Z,99640.81
2023-04-12T15:44:25.593Z,99643.19
2023-04-12T15:47:07.892Z,99629.38
2023-04-12T15:49:41.242Z,99642.94
2023-04-12T15:52:09.424Z,99634.75
2023-04-12T15:54:44.160Z,99630.78
2023-04-12T15:57:12.738Z,99632.94
2023-04-12T15:59:41.953Z,99626.56
2023-04-12T16:02:10.792Z,99622.09
2023-04-12T16:04:41.272Z,99623.59
2023-04-12T16:07:09.630Z,99631.41
2023-04-12T16:09:40.978Z,99637.69
2023-04-12T16:12:09.135Z,99638.41
2023-04-12T16:14:41.816Z,99637.75
2023-04-12T16:17:11.761Z,99630.16
2023-04-12T16:19:41.960Z,99634.00
2023-04-12T16:22:12.262Z,99630.88
2023-04-12T16:24:42.178Z,99634.94
2023-04-12T16:27:11.124Z,99629.69
2023-04-12T16:29:40.427Z,99635.22
2023-04-12T16:32:09.233Z,99637.56
2023-04-12T16:34:38.152Z,99629.63
2023-04-12T16:37:07.966Z,99637.16
2023-04-12T16:39:38.479Z,99637.16
2023-04-12T16:42:07.681Z,99643.38
2023-04-12T16:44:36.698Z,99643.03
2023-04-12T16:47:06.218Z,99639.66
2023-04-12T16:49:34.641Z,99640.38
2023-04-12T16:52:02.892Z,99645.50
2023-04-12T16:54:36.244Z,99652.50
2023-04-12T16:57:04.799Z,99653.91
2023-04-12T16:59:43.770Z,99643.47
2023-04-12T17:02:12.900Z,99660.41
2023-04-12T17:04:50.203Z,99655.69
2023-04-12T17:07:19.105Z,99649.97
2023-04-12T17:09:48.825Z,99652.13
2023-04-12T17:12:17.227Z,99654.44
2023-04-12T17:14:46.066Z,99650.38
2023-04-12T17:17:15.059Z,99651.94
2023-04-12T17:19:48.872Z,99652.56
2023-04-12T17:22:22.745Z,99653.34
2023-04-12T17:24:53.016Z,99653.69
2023-04-12T17:27:21.430Z,99653.16
2023-04-12T17:29:50.358Z,99658.97
2023-04-12T17:32:18.707Z,99657.69
2023-04-12T17:34:47.027Z,99658.31
2023-04-12T17:37:15.367Z,99656.63
2023-04-12T17:39:48.307Z,99659.94
2023-04-12T17:42:18.727Z,99669.75
2023-04-12T17:44:47.478Z,99662.84
2023-04-12T17:47:16.360Z,99667.06
2023-04-12T17:49:46.007Z,99669.22
2023-04-12T17:52:14.497Z,99660.44
2023-04-12T17:54:42.779Z,99672.25
2023-04-12T17:57:11.518Z,99677.88
2023-04-12T17:59:41.839Z,99667.22
2023-04-12T18:02:10.394Z,99681.28
2023-04-12T18:04:38.970Z,99674.34
2023-04-12T18:07:09.579Z,99684.28
2023-04-12T18:09:40.459Z,99688.25
2023-04-12T18:12:08.749Z,99690.34
2023-04-12T18:14:37.543Z,99692.47
2023-04-12T18:17:09.644Z,99692.50
2023-04-12T18:19:37.958Z,99697.69
2023-04-12T18:22:06.580Z,99697.72
2023-04-12T18:24:35.880Z,99690.78
2023-04-12T18:27:07.187Z,99693.88
2023-04-12T18:29:36.029Z,99706.44
2023-04-12T18:32:04.360Z,99706.44
2023-04-12T18:34:35.186Z,99720.81
2023-04-12T18:37:06.133Z,99714.91
2023-04-12T18:39:35.694Z,99714.06
2023-04-12T18:42:04.281Z,99723.72
2023-04-12T18:44:32.828Z,99723.13
2023-04-12T18:47:03.524Z,99723.31
2023-04-12T18:49:33.977Z,99725.59
2023-04-12T18:52:02.263Z,99719.63
2023-04-12T18:54:49.988Z,99716.16
2023-04-12T18:57:22.164Z,99706.13
2023-04-12T18:59:51.631Z,99711.00
2023-04-12T19:02:20.014Z,99714.13
2023-04-12T19:04:50.928Z,99716.59
2023-04-12T19:07:19.132Z,99715.19
2023-04-12T19:09:49.491Z,99708.03
2023-04-12T19:12:18.217Z,99710.91
2023-04-12T19:14:47.966Z,99708.91
2023-04-12T19:17:16.886Z,99708.28
2023-04-12T19:19:45.113Z,99713.41
2023-04-12T19:22:14.705Z,99718.16
2023-04-12T19:24:42.845Z,99704.41
2023-04-12T19:27:11.180Z,99700.94
2023-04-12T19:29:39.350Z,99699.13
2023-04-12T19:32:12.133Z,99699.13
2023-04-12T19:34:40.746Z,99701.81
2023-04-12T19:37:09.931Z,99695.66
2023-04-12T19:39:40.728Z,99698.56
2023-04-12T19:42:12.343Z,99701.00
2023-04-12T19:44:42.006Z,99694.88
2023-04-12T19:47:10.647Z,99702.88
2023-04-12T19:49:39.297Z,99698.38
2023-04-12T19:52:09.921Z,99694.69
2023-04-12T19:54:40.738Z,99703.28
2023-04-12T19:57:08.993Z,99699.59
2023-04-12T19:59:37.132Z,99703.66
2023-04-12T20:02:05.381Z,99699.56
2023-04-12T20:04:34.190Z,99692.19
2023-04-12T20:07:02.725Z,99688.47
2023-04-12T20:09:31.400Z,99685.59
2023-04-12T20:12:01.929Z,99689.91
2023-04-12T20:14:38.489Z,99684.75
2023-04-12T20:17:07.214Z,99690.31
2023-04-12T20:19:37.722Z,99686.59
2023-04-12T20:22:07.212Z,99679.03
2023-04-12T20:24:37.780Z,99691.91
2023-04-12T20:27:08.694Z,99686.19
2023-04-12T20:29:38.193Z,99688.44
2023-04-12T20:32:06.837Z,99681.03
2023-04-12T20:34:35.034Z,99690.47
2023-04-12T20:37:03.250Z,99682.88
2023-04-12T20:39:32.225Z,99684.91
2023-04-12T20:42:01.362Z,99686.13
2023-04-12T20:44:31.412Z,99685.69
2023-04-12T20:46:59.767Z,99683.47
2023-04-12T20:49:28.110Z,99686.50
2023-04-12T20:51:58.654Z,99692.84
2023-04-12T20:54:30.150Z,99685.25
2023-04-12T20:57:04.223Z,99689.13
2023-04-12T20:59:36.110Z,99690.38
2023-04-12T21:02:04.737Z,99691.41
2023-04-12T21:04:36.601Z,99684.00
2023-04-12T21:07:05.154Z,99685.41
2023-04-12T21:09:34.165Z,99679.06
2023-04-12T21:12:05.237Z,99681.09
2023-04-12T21:14:35.661Z,99677.81
2023-04-12T21:17:07.116Z,99673.50
2023-04-12T21:19:42.022Z,99675.97
2023-04-12T21:22:10.445Z,99684.13
2023-04-12T21:24:39.263Z,99680.66
2023-04-12T21:27:10.279Z,99677.81
2023-04-12T21:29:41.641Z,99683.75
2023-04-12T21:32:18.315Z,99686.03
2023-04-12T21:34:47.666Z,99676.81
2023-04-12T21:37:22.794Z,99679.25
2023-04-12T21:39:51.077Z,99679.50
2023-04-12T21:42:19.405Z,99681.56
2023-04-12T21:44:53.404Z,99688.94
2023-04-12T21:47:25.237Z,99702.47
2023-04-12T21:49:54.010Z,99684.66
2023-04-12T21:52:22.229Z,99678.13
2023-04-12T21:54:50.468Z,99677.31
2023-04-12T21:57:21.710Z,99671.16
2023-04-12T21:59:51.674Z,99675.25
2023-04-12T22:02:20.258Z,99676.06
2023-04-12T22:04:48.645Z,99658.66
2023-04-12T22:07:25.692Z,99659.84
2023-04-12T22:09:54.876Z,99649.00
2023-04-12T22:12:25.655Z,99654.91
2023-04-12T22:14:57.775Z,99658.59
2023-04-12T22:17:36.238Z,99647.56
2023-04-12T22:20:10.925Z,99649.22
2023-04-12T22:22:40.511Z,99651.66
2023-04-12T22:25:12.236Z,99643.50
2023-04-12T22:27:40.992Z,99652.50
2023-04-12T22:30:11.648Z,99648.63
2023-04-12T22:32:40.440Z,99632.47
2023-04-12T22:35:10.306Z,99632.25
2023-04-12T22:37:41.524Z,99632.25
2023-04-12T22:40:12.446Z,99622.22
2023-04-12T22:42:46.965Z,99627.38
2023-04-12T22:45:18.530Z,99632.47
2023-04-12T22:47:47.744Z,99626.72
2023-04-12T22:50:15.946Z,99625.50
2023-04-12T22:52:44.129Z,99613.19
2023-04-12T22:55:14.247Z,99632.03
2023-04-12T22:57:42.565Z,99609.69
2023-04-12T23:00:16.543Z,99598.22
2023-04-12T23:02:48.769Z,99614.00
2023-04-12T23:05:17.751Z,99616.03
2023-04-12T23:07:46.127Z,99603.75
2023-04-12T23:10:14.605Z,99599.03
2023-04-12T23:12:42.882Z,99627.72
2023-04-12T23:15:12.794Z,99627.53
2023-04-12T23:17:43.020Z,99644.94
2023-04-12T23:20:14.928Z,99649.84
2023-04-12T23:22:57.807Z,99640.63
2023-04-12T23:25:38.050Z,99634.09
2023-04-12T23:28:08.079Z,99624.91
2023-04-12T23:30:36.244Z,99621.41
2023-04-12T23:33:04.427Z,99606.47
2023-04-12T23:35:39.792Z,99605.84
2023-04-12T23:38:09.102Z,99598.88
2023-04-12T23:40:39.580Z,99604.19
2023-04-12T23:43:12.012Z,99590.47
2023-04-12T23:45:40.179Z,99586.16
2023-04-12T23:48:09.138Z,99598.44
2023-04-12T23:50:39.184Z,99589.66
2023-04-12T23:53:07.610Z,99589.03
2023-04-12T23:55:35.996Z,99570.16
2023-04-12T23:58:13.427Z,99561.59
